YPLI weather

Palmers Island/Yamba Airport
New South Wales, Australia

Public forecast

Using degrees Celsius for public forecast. Weather courtesy of forecast.io.

Closest aviation weather report (METAR) to Palmers Island/Yamba Airport

Closest report is Grafton Airport, 22.5 nm (41.7 km) SSW. Retrieved 2020/03/29 20:00 UTC (41 minutes ago):

YGFN 292000Z AUTO 19002KT 9999 // NCD 15/15 Q1016

Closest aviation forecast (TAF) to Palmers Island/Yamba Airport

Closest forecast is Gold Coast Airport, 77.9 nm (144.4 km) N. Retrieved 2020/03/29 18:00 UTC (3 hours ago):

TAF YBCG 291717Z 2918/3018 20005KT 9999 FEW020 FM300100 03010KT 9999 FEW035 FM301200 32008KT 9999 FEW025